^^
Grace C. Lehan Memorial Weather Station Historical Data
Daily Summary for January 5, 2021 Units:  Metric    English   Both
Daily Weekly Monthly Yearly
  High: Low: Average:
Temperature: 8.8 °C 0.7 °C 4.3 °C
Dew Point: -0.7 °C -4.6 °C -2.6 °C
Humidity: 89% 40% 63%
Wind Speed: 5km/h 0km/h 0.3km/h
Wind Gust: 16.1km/h - -
Wind- - West
Pressure: 1029 hPa 1020.9 hPa -
Precipitation: 0 mm    
 
 
Tabular Data for January 5, 2021
Time Temperature Dew Point Pressure Wind Wind Speed Wind Gust Humidity Rainfall Rate (Hourly) solar
00:04 0.9 °C -0.9 °C 1020.9 hPa Calm   3.2 km/h 87% 0 mm 0 W/m2
00:09 0.9 °C -1 °C 1020.9 hPa Calm     87% 0 mm 0 W/m2
00:14 0.9 °C -0.9 °C 1021.2 hPa NW 0.3 km/h 3.2 km/h 87.5% 0 mm 0 W/m2
00:19 0.9 °C -0.8 °C 1021.2 hPa Calm   3.2 km/h 88% 0 mm 0 W/m2
00:24 1.1 °C -0.7 °C 1021.2 hPa NW 0.2 km/h 3.2 km/h 88% 0 mm 0 W/m2
00:29 1.1 °C -0.7 °C 1021.2 hPa Calm   3.2 km/h 88% 0 mm 0 W/m2
00:34 1.1 °C -0.7 °C 1021.2 hPa Calm   3.2 km/h 88% 0 mm 0 W/m2
00:39 1 °C -0.8 °C 1021.2 hPa Calm     88% 0 mm 0 W/m2
00:44 0.9 °C -0.8 °C 1020.9 hPa Calm     88% 0 mm 0 W/m2
00:49 0.8 °C -0.9 °C 1020.9 hPa Calm     88% 0 mm 0 W/m2
00:54 0.7 °C -1 °C 1021.2 hPa Calm     88% 0 mm 0 W/m2
00:59 0.7 °C -1.1 °C 1021.2 hPa Calm     88% 0 mm 0 W/m2
01:04 0.7 °C -0.9 °C 1021.2 hPa Calm     88.9% 0 mm 0 W/m2
01:09 0.7 °C -0.9 °C 1021.2 hPa Calm     89% 0 mm 0 W/m2
01:14 0.7 °C -0.9 °C 1021.2 hPa Calm     89% 0 mm 0 W/m2
01:19 0.7 °C -0.9 °C 1021.6 hPa Calm     89% 0 mm 0 W/m2
01:24 0.7 °C -0.9 °C 1021.6 hPa Calm     89% 0 mm 0 W/m2
01:29 0.7 °C -0.9 °C 1021.6 hPa Calm     89% 0 mm 0 W/m2
01:34 0.8 °C -0.8 °C 1021.6 hPa Calm     89% 0 mm 0 W/m2
01:39 0.8 °C -0.8 °C 1021.9 hPa Calm     88.6% 0 mm 0 W/m2
01:44 0.9 °C -0.8 °C 1021.9 hPa NW 0.2 km/h 4.8 km/h 88% 0 mm 0 W/m2
01:49 1 °C -0.8 °C 1021.9 hPa Calm   4.8 km/h 87.3% 0 mm 0 W/m2
01:54 1.1 °C -0.9 °C 1021.9 hPa Calm   4.8 km/h 86.7% 0 mm 0 W/m2
01:59 1 °C -0.7 °C 1022.2 hPa Calm   4.8 km/h 88.6% 0 mm 0 W/m2
02:04 1 °C -1 °C 1022.2 hPa Calm   4.8 km/h 86.6% 0 mm 0 W/m2
02:09 1 °C -1.1 °C 1022.6 hPa Calm     86% 0 mm 0 W/m2
02:14 0.9 °C -1.1 °C 1022.6 hPa Calm     86% 0 mm 0 W/m2
02:19 0.9 °C -1.2 °C 1022.6 hPa Calm     86% 0 mm 0 W/m2
02:24 0.8 °C -1.3 °C 1022.6 hPa Calm     86% 0 mm 0 W/m2
02:29 0.8 °C -1.3 °C 1022.9 hPa Calm     86% 0 mm 0 W/m2
02:34 0.8 °C -1.3 °C 1023.2 hPa Calm     86% 0 mm 0 W/m2
02:39 0.8 °C -1.3 °C 1023.2 hPa Calm   1.6 km/h 86% 0 mm 0 W/m2
02:44 0.8 °C -1.3 °C 1023.2 hPa Calm   1.6 km/h 85.8% 0 mm 0 W/m2
02:49 0.8 °C -1.4 °C 1023.6 hPa NW 0.3 km/h 4.8 km/h 85% 0 mm 0 W/m2
02:54 0.9 °C -1.3 °C 1023.2 hPa Calm   4.8 km/h 85% 0 mm 0 W/m2
02:59 0.9 °C -1.4 °C 1023.2 hPa Calm   4.8 km/h 84.7% 0 mm 0 W/m2
03:04 0.9 °C -1.4 °C 1023.2 hPa NW 0.2 km/h 4.8 km/h 84% 0 mm 0 W/m2
03:09 0.9 °C -1.4 °C 1023.6 hPa Calm   3.2 km/h 84% 0 mm 0 W/m2
03:14 1 °C -1.5 °C 1023.6 hPa NW 0.2 km/h 3.2 km/h 83.4% 0 mm 0 W/m2
03:19 1.1 °C -1.5 °C 1023.6 hPa NW 0.2 km/h 3.2 km/h 83% 0 mm 0 W/m2
03:24 1.1 °C -1.5 °C 1023.6 hPa Calm   3.2 km/h 83% 0 mm 0 W/m2
03:29 1.1 °C -1.4 °C 1023.6 hPa Calm   3.2 km/h 83% 0 mm 0 W/m2
03:34 1.1 °C -1.6 °C 1023.6 hPa NW 0.2 km/h 4.8 km/h 82% 0 mm 0 W/m2
03:39 1.1 °C -1.6 °C 1023.6 hPa NW 1 km/h 6.4 km/h 81.9% 0 mm 0 W/m2
03:44 1.2 °C -1.7 °C 1023.6 hPa NW 0.2 km/h 6.4 km/h 81% 0 mm 0 W/m2
03:49 1.3 °C -1.8 °C 1023.9 hPa Calm   6.4 km/h 80.1% 0 mm 0 W/m2
03:54 1.4 °C -1.8 °C 1023.9 hPa Calm   6.4 km/h 79.1% 0 mm 0 W/m2
03:59 1.5 °C -1.9 °C 1023.9 hPa Calm   6.4 km/h 78.1% 0 mm 0 W/m2
04:00 1.6 °C -2.1 °C 1023.6 hPa Calm   6.4 km/h 77% 0 mm 0 W/m2
04:09 1.7 °C -2 °C 1023.9 hPa Calm     76.6% 0 mm 0 W/m2
04:14 1.7 °C -2.1 °C 1023.9 hPa Calm     76% 0 mm 0 W/m2
04:19 1.7 °C -2.1 °C 1023.9 hPa Calm     76% 0 mm 0 W/m2
04:24 1.7 °C -2.1 °C 1023.9 hPa Calm     76% 0 mm 0 W/m2
04:29 1.7 °C -2.2 °C 1023.6 hPa Calm     75.5% 0 mm 0 W/m2
04:34 1.7 °C -2.1 °C 1023.9 hPa Calm     76% 0 mm 0 W/m2
04:39 1.6 °C -2.2 °C 1024.3 hPa Calm     75.5% 0 mm 0 W/m2
04:44 1.6 °C -2.2 °C 1024.3 hPa Calm     76% 0 mm 0 W/m2
04:49 1.6 °C -2.2 °C 1024.3 hPa Calm     76% 0 mm 0 W/m2
04:54 1.6 °C -2.2 °C 1024.3 hPa Calm     76% 0 mm 0 W/m2
04:59 1.5 °C -2.2 °C 1024.3 hPa Calm     76.3% 0 mm 0 W/m2
05:04 1.4 °C -2.1 °C 1024.6 hPa Calm     77.5% 0 mm 0 W/m2
05:09 1.3 °C -2 °C 1024.3 hPa Calm     78.7% 0 mm 0 W/m2
05:14 1.2 °C -2.2 °C 1024.6 hPa Calm     78.5% 0 mm 0 W/m2
05:19 1.1 °C -2.3 °C 1024.6 hPa WNW 1.3 km/h 8 km/h 78% 0 mm 0 W/m2
05:24 1.1 °C -2.2 °C 1024.9 hPa WNW 0.8 km/h 8 km/h 78.7% 0 mm 0 W/m2
05:29 1.1 °C -2.2 °C 1024.9 hPa WNW 0.2 km/h 8 km/h 78.3% 0 mm 0 W/m2
05:34 1.1 °C -2.2 °C 1024.9 hPa Calm   8 km/h 78.3% 0 mm 0 W/m2
05:39 1.2 °C -2.2 °C 1025.3 hPa Calm     78% 0 mm 0 W/m2
05:44 1.2 °C -2.3 °C 1025.3 hPa Calm     77.4% 0 mm 0 W/m2
05:49 1.2 °C -2.2 °C 1025.3 hPa Calm     78% 0 mm 0 W/m2
05:54 1.2 °C -2.2 °C 1025.3 hPa Calm     78.2% 0 mm 0 W/m2
05:59 1.2 °C -2.2 °C 1025.6 hPa Calm     78% 0 mm 0 W/m2
06:04 1.1 °C -2.1 °C 1025.6 hPa Calm     79% 0 mm 0 W/m2
06:09 1.1 °C -2.1 °C 1025.6 hPa Calm     79.4% 0 mm 0 W/m2
06:14 1 °C -2.1 °C 1025.6 hPa Calm     80% 0 mm 0 W/m2
06:19 1 °C -2.1 °C 1025.6 hPa Calm     80% 0 mm 0 W/m2
06:24 0.9 °C -2.2 °C 1025.6 hPa Calm     79.7% 0 mm 0 W/m2
06:29 1 °C -2.3 °C 1025.6 hPa Calm     78.6% 0 mm 0 W/m2
06:34 1 °C -2.4 °C 1025.6 hPa Calm     78% 0 mm 0 W/m2
06:39 1.1 °C -2.2 °C 1026 hPa Calm     78.6% 0 mm 0 W/m2
06:44 1.1 °C -2.2 °C 1026 hPa Calm     79% 0 mm 0 W/m2
06:49 1.1 °C -2.2 °C 1026 hPa Calm     79% 0 mm 0 W/m2
06:54 1 °C -2.2 °C 1026.3 hPa Calm     79% 0 mm 0 W/m2
06:59 1 °C -2.3 °C 1026.3 hPa Calm     78.3% 0 mm 0 W/m2
07:04 1 °C -2.3 °C 1026.3 hPa Calm     78.7% 0 mm 5 W/m2
07:09 1 °C -2.2 °C 1026.6 hPa Calm     79.3% 0 mm 11 W/m2
07:14 1 °C -1.6 °C 1026.6 hPa Calm   1.6 km/h 83% 0 mm 16 W/m2
07:19 1 °C -2 °C 1026.6 hPa Calm   1.6 km/h 80.2% 0 mm 21 W/m2
07:24 1 °C -2.3 °C 1027 hPa Calm   1.6 km/h 78.3% 0 mm 28 W/m2
07:29 1 °C -2.4 °C 1027 hPa Calm   1.6 km/h 77.6% 0 mm 39 W/m2
07:34 1.1 °C -2.5 °C 1027 hPa Calm   1.6 km/h 76.8% 0 mm 62 W/m2
07:39 1.3 °C -2.4 °C 1027 hPa Calm     76.3% 0 mm 84 W/m2
07:44 1.6 °C -2.1 °C 1027 hPa Calm     77% 0 mm 91 W/m2
07:49 1.9 °C -1.8 °C 1027 hPa Calm     76.2% 0 mm 113 W/m2
07:54 2.4 °C -1.5 °C 1027 hPa Calm     75.4% 0 mm 113 W/m2
07:59 2.7 °C -1.6 °C 1027.3 hPa Calm     73.3% 0 mm 84 W/m2
08:00 2.9 °C -1.4 °C 1027.3 hPa Calm     73% 0 mm 72 W/m2
08:09 3.3 °C -1.4 °C 1027.3 hPa Calm     71.5% 0 mm 77 W/m2
08:14 3.4 °C -1.6 °C 1027.3 hPa Calm     69.9% 0 mm 79 W/m2
08:19 3.5 °C -1.8 °C 1027.3 hPa Calm     68.2% 0 mm 98 W/m2
08:24 3.6 °C -1.7 °C 1027.7 hPa Calm     68% 0 mm 86 W/m2
08:29 3.8 °C -1.7 °C 1027.7 hPa Calm     67.4% 0 mm 83 W/m2
08:34 3.8 °C -2 °C 1027.7 hPa Calm     65.7% 0 mm 148 W/m2
08:39 3.9 °C -1.8 °C 1027.7 hPa Calm     65.9% 0 mm 199 W/m2
08:44 4.2 °C -1.6 °C 1028 hPa Calm     66% 0 mm 250 W/m2
08:49 4.6 °C -1.5 °C 1028 hPa WNW 0.8 km/h 6.4 km/h 64.6% 0 mm 232 W/m2
08:54 4.9 °C -1.7 °C 1028 hPa Calm   6.4 km/h 62.4% 0 mm 105 W/m2
08:59 5.1 °C -1.3 °C 1028.3 hPa WNW 0.2 km/h 6.4 km/h 63.3% 0 mm 127 W/m2
09:04 5.2 °C -1.6 °C 1028.3 hPa WNW 1.3 km/h 6.4 km/h 61.8% 0 mm 153 W/m2
09:09 5.2 °C -1.8 °C 1028.7 hPa WNW 0.6 km/h 4.8 km/h 60.7% 0 mm 151 W/m2
09:14 5.2 °C -2.1 °C 1028.7 hPa WNW 0.8 km/h 6.4 km/h 59.3% 0 mm 171 W/m2
09:19 5.2 °C -2.2 °C 1028.7 hPa WNW 1 km/h 8 km/h 58.8% 0 mm 223 W/m2
09:24 5.4 °C -2.4 °C 1028.7 hPa WNW 0.5 km/h 8 km/h 57.2% 0 mm 218 W/m2
09:29 5.7 °C -2.3 °C 1028.7 hPa WNW 2.3 km/h 8 km/h 56.6% 0 mm 158 W/m2
09:34 5.8 °C -2.8 °C 1028.7 hPa WNW 3.1 km/h 8 km/h 54% 0 mm 158 W/m2
09:39 5.9 °C -2.7 °C 1028.7 hPa West 0.8 km/h 8 km/h 54% 0 mm 148 W/m2
09:44 6.1 °C -2.5 °C 1029 hPa West 1.3 km/h 8 km/h 54.2% 0 mm 156 W/m2
09:49 6.1 °C -2.8 °C 1029 hPa West 3.1 km/h 9.7 km/h 52.8% 0 mm 178 W/m2
09:54 6.2 °C -2.5 °C 1029 hPa West 3.1 km/h 9.7 km/h 53.6% 0 mm 193 W/m2
09:59 6.3 °C -2.7 °C 1028.7 hPa NW 5 km/h 16.1 km/h 52.4% 0 mm 199 W/m2
10:04 6.4 °C -2.9 °C 1028.7 hPa WNW 4 km/h 16.1 km/h 51.2% 0 mm 258 W/m2
10:09 6.5 °C -2.7 °C 1028.7 hPa WNW 1.8 km/h 8 km/h 51.8% 0 mm 364 W/m2
10:14 6.8 °C -2.7 °C 1029 hPa WNW 4.2 km/h 11.3 km/h 50.5% 0 mm 404 W/m2
10:19 7.1 °C -2.5 °C 1029 hPa WNW 0.5 km/h 11.3 km/h 50.4% 0 mm 438 W/m2
10:24 7.6 °C -1.9 °C 1028.7 hPa WNW 0.5 km/h 11.3 km/h 50.7% 0 mm 424 W/m2
10:29 8 °C -2.2 °C 1028.7 hPa WSW 2.9 km/h 11.3 km/h 48.5% 0 mm 283 W/m2
10:34 8.2 °C -2.6 °C 1028.7 hPa WSW 0.6 km/h 11.3 km/h 46.2% 0 mm 255 W/m2
10:39 8.4 °C -2.9 °C 1028.7 hPa WSW 2.9 km/h 11.3 km/h 44.8% 0 mm 237 W/m2
10:44 8.4 °C -3.3 °C 1028.7 hPa West 2.7 km/h 14.5 km/h 43.6% 0 mm 139 W/m2
10:49 8.2 °C -3.3 °C 1028.7 hPa West 1.9 km/h 14.5 km/h 44.2% 0 mm 151 W/m2
10:54 7.9 °C -3.3 °C 1028.3 hPa West 3.4 km/h 14.5 km/h 45% 0 mm 325 W/m2
10:59 7.8 °C -3 °C 1028.3 hPa WNW 1.1 km/h 14.5 km/h 46.2% 0 mm 260 W/m2
11:04 7.9 °C -3 °C 1028.3 hPa Calm   14.5 km/h 45.9% 0 mm 199 W/m2
11:09 8.1 °C -3 °C 1028.3 hPa WNW 1.1 km/h 8 km/h 45.5% 0 mm 113 W/m2
11:14 8.1 °C -2.9 °C 1028 hPa WNW 1.8 km/h 8 km/h 45.6% 0 mm 113 W/m2
11:19 8.2 °C -3.1 °C 1028 hPa WNW 4.2 km/h 11.3 km/h 44.6% 0 mm 137 W/m2
11:24 8.2 °C -3.4 °C 1028 hPa WNW 1.8 km/h 11.3 km/h 43.6% 0 mm 241 W/m2
11:29 8.2 °C -3 °C 1028 hPa West 0.6 km/h 11.3 km/h 44.9% 0 mm 250 W/m2
11:34 8.4 °C -2.9 °C 1028 hPa West 2.3 km/h 11.3 km/h 44.6% 0 mm 216 W/m2
11:39 8.5 °C -3.1 °C 1028 hPa West 0.6 km/h 8 km/h 44% 0 mm 199 W/m2
11:44 8.5 °C -3.1 °C 1028 hPa West 0.5 km/h 8 km/h 44% 0 mm 223 W/m2
11:49 8.4 °C -2.9 °C 1028 hPa West 0.6 km/h 8 km/h 44.6% 0 mm 234 W/m2
11:54 8.4 °C -2.9 °C 1028 hPa West 0.8 km/h 8 km/h 44.6% 0 mm 258 W/m2
11:59 8.5 °C -2.8 °C 1027.7 hPa WNW 2.7 km/h 11.3 km/h 44.7% 0 mm 132 W/m2
12:00 8.6 °C -3 °C 1027.7 hPa Calm   11.3 km/h 44% 0 mm 132 W/m2
12:09 8.6 °C -2.9 °C 1027.7 hPa West 1.3 km/h 6.4 km/h 43.9% 0 mm 288 W/m2
12:14 8.6 °C -3.6 °C 1027.7 hPa WNW 3.5 km/h 11.3 km/h 42% 0 mm 287 W/m2
12:19 8.7 °C -3.3 °C 1027.7 hPa WSW 1.8 km/h 11.3 km/h 42.8% 0 mm 308 W/m2
12:24 8.7 °C -3.3 °C 1027.7 hPa West 1.4 km/h 11.3 km/h 42.5% 0 mm 385 W/m2
12:29 8.7 °C -3.3 °C 1027.7 hPa WNW 2.7 km/h 12.9 km/h 42.6% 0 mm 355 W/m2
12:34 8.7 °C -3.6 °C 1027.7 hPa WSW 4.7 km/h 12.9 km/h 41.5% 0 mm 348 W/m2
12:39 8.8 °C -3.3 °C 1028 hPa SW 0.6 km/h 9.7 km/h 42.4% 0 mm 329 W/m2
12:44 8.8 °C -3.7 °C 1028 hPa WSW 1.8 km/h 9.7 km/h 40.9% 0 mm 186 W/m2
12:49 8.8 °C -4 °C 1027.7 hPa Calm   9.7 km/h 40.2% 0 mm 163 W/m2
12:54 8.6 °C -4.1 °C 1027.7 hPa WSW 0.5 km/h 9.7 km/h 40.4% 0 mm 95 W/m2
12:59 8.4 °C -3.9 °C 1027.7 hPa WSW 0.3 km/h 9.7 km/h 41.6% 0 mm 81 W/m2
13:04 8.3 °C -3.5 °C 1027.7 hPa Calm   9.7 km/h 43.2% 0 mm 102 W/m2
13:09 8.2 °C -3.7 °C 1027.3 hPa Calm   1.6 km/h 42.8% 0 mm 114 W/m2
13:14 8.1 °C -3.8 °C 1027.3 hPa Calm   1.6 km/h 42.7% 0 mm 121 W/m2
13:19 8.1 °C -4.1 °C 1027.3 hPa Calm   1.6 km/h 42% 0 mm 120 W/m2
13:24 8.1 °C -3.6 °C 1027.3 hPa WSW 0.8 km/h 4.8 km/h 43.5% 0 mm 111 W/m2
13:29 8 °C -4 °C 1027.3 hPa WSW 1.8 km/h 4.8 km/h 42.4% 0 mm 98 W/m2
13:34 7.9 °C -4 °C 1027.3 hPa WSW 0.5 km/h 4.8 km/h 42.5% 0 mm 84 W/m2
13:39 7.9 °C -4.1 °C 1027.3 hPa Calm   4.8 km/h 42.5% 0 mm 109 W/m2
13:44 7.8 °C -4.3 °C 1027.3 hPa WSW 0.2 km/h 4.8 km/h 42% 0 mm 165 W/m2
13:49 7.8 °C -4 °C 1027.3 hPa Calm   4.8 km/h 42.9% 0 mm 197 W/m2
13:54 7.8 °C -4 °C 1027.3 hPa WSW 1.3 km/h 8 km/h 42.8% 0 mm 197 W/m2
13:59 8 °C -3.7 °C 1027.3 hPa WSW 0.3 km/h 8 km/h 43.3% 0 mm 213 W/m2
14:04 8.2 °C -3.8 °C 1027.3 hPa WSW 1.1 km/h 8 km/h 42.5% 0 mm 137 W/m2
14:09 8.3 °C -3.9 °C 1027.3 hPa Calm   6.4 km/h 41.8% 0 mm 128 W/m2
14:14 8.4 °C -3.7 °C 1027 hPa Calm   6.4 km/h 42% 0 mm 125 W/m2
14:19 8.6 °C -3.6 °C 1027 hPa WSW 0.6 km/h 6.4 km/h 42.3% 0 mm 91 W/m2
14:24 8.6 °C -3.8 °C 1027 hPa WSW 0.2 km/h 6.4 km/h 41.5% 0 mm 63 W/m2
14:29 8.6 °C -4 °C 1027 hPa Calm   6.4 km/h 40.9% 0 mm 86 W/m2
14:34 8.5 °C -4.3 °C 1027 hPa Calm   6.4 km/h 40% 0 mm 54 W/m2
14:39 8.4 °C -4.3 °C 1027.3 hPa WSW 0.2 km/h 3.2 km/h 40.2% 0 mm 39 W/m2
14:44 8.3 °C -4.4 °C 1027 hPa Calm   3.2 km/h 40.1% 0 mm 33 W/m2
14:49 8.3 °C -3.8 °C 1027 hPa WSW 2.1 km/h 9.7 km/h 42.4% 0 mm 35 W/m2
14:54 8.2 °C -3.9 °C 1027.3 hPa WSW 0.2 km/h 9.7 km/h 42.3% 0 mm 32 W/m2
14:59 8.1 °C -3.9 °C 1027.3 hPa Calm   9.7 km/h 42.5% 0 mm 30 W/m2
15:04 7.9 °C -3.9 °C 1027.3 hPa Calm   9.7 km/h 42.7% 0 mm 30 W/m2
15:09 7.8 °C -4.5 °C 1027.3 hPa WSW 0.2 km/h 3.2 km/h 41.4% 0 mm 30 W/m2
15:14 7.7 °C -4.4 °C 1027.3 hPa Calm   3.2 km/h 41.8% 0 mm 28 W/m2
15:19 7.6 °C -4.3 °C 1027.7 hPa Calm   3.2 km/h 42.4% 0 mm 21 W/m2
15:24 7.5 °C -4.2 °C 1027.7 hPa Calm   3.2 km/h 43% 0 mm 21 W/m2
15:29 7.4 °C -4.4 °C 1027.7 hPa Calm   3.2 km/h 42.8% 0 mm 18 W/m2
15:34 7.3 °C -4.2 °C 1027.7 hPa Calm   3.2 km/h 43.8% 0 mm 16 W/m2
15:39 7.2 °C -4.2 °C 1027.7 hPa Calm     44% 0 mm 12 W/m2
15:44 7.1 °C -4.6 °C 1027.7 hPa Calm     43.1% 0 mm 11 W/m2
15:49 7 °C -4.5 °C 1027.7 hPa Calm     43.7% 0 mm 9 W/m2
15:54 6.9 °C -4.3 °C 1027.7 hPa Calm     44.6% 0 mm 7 W/m2
15:59 6.8 °C -4.4 °C 1027.7 hPa Calm     44.5% 0 mm 5 W/m2
16:00 6.7 °C -4.1 °C 1027.3 hPa Calm     46% 0 mm 5 W/m2
16:09 6.6 °C -4.1 °C 1027.7 hPa Calm     46.4% 0 mm 0 W/m2
16:14 6.6 °C -3.9 °C 1027.7 hPa Calm     47% 0 mm 0 W/m2
16:19 6.6 °C -3.9 °C 1027.7 hPa Calm     46.9% 0 mm 0 W/m2
16:24 6.5 °C -4.1 °C 1027.7 hPa Calm     46.8% 0 mm 0 W/m2
16:29 6.4 °C -4.3 °C 1027.7 hPa Calm     46.2% 0 mm 0 W/m2
16:34 6.3 °C -4.2 °C 1027.7 hPa Calm     47% 0 mm 0 W/m2
16:39 6.3 °C -3.9 °C 1027.7 hPa Calm     47.8% 0 mm 0 W/m2
16:44 6.3 °C -3.7 °C 1027.7 hPa Calm     49% 0 mm 0 W/m2
16:49 6.3 °C -3.8 °C 1027.7 hPa Calm     48.5% 0 mm 0 W/m2
16:54 6.2 °C -4.3 °C 1027.7 hPa Calm     47.1% 0 mm 0 W/m2
16:59 6.1 °C -4.3 °C 1027.7 hPa Calm     47.1% 0 mm 0 W/m2
17:04 6 °C -4.2 °C 1027.7 hPa Calm     48% 0 mm 0 W/m2
17:09 5.9 °C -3.2 °C 1027.7 hPa Calm     51.7% 0 mm 0 W/m2
17:14 5.9 °C -3.1 °C 1027.7 hPa Calm     52.2% 0 mm 0 W/m2
17:19 5.9 °C -3 °C 1027.7 hPa Calm     52.5% 0 mm 0 W/m2
17:24 6 °C -3.3 °C 1027.3 hPa Calm     51.2% 0 mm 0 W/m2
17:29 5.9 °C -3.8 °C 1027.3 hPa WSW 0.5 km/h 6.4 km/h 49.3% 0 mm 0 W/m2
17:34 5.9 °C -4.3 °C 1027.3 hPa Calm   6.4 km/h 47.9% 0 mm 0 W/m2
17:39 5.8 °C -4.3 °C 1027.7 hPa Calm   3.2 km/h 47.9% 0 mm 0 W/m2
17:44 5.8 °C -4.2 °C 1027.3 hPa Calm   3.2 km/h 48.5% 0 mm 0 W/m2
17:49 5.8 °C -4.4 °C 1027.3 hPa Calm   3.2 km/h 48% 0 mm 0 W/m2
17:54 5.7 °C -4.3 °C 1027.3 hPa Calm   3.2 km/h 48.7% 0 mm 0 W/m2
17:59 5.6 °C -4.3 °C 1027.3 hPa Calm   3.2 km/h 49% 0 mm 0 W/m2
18:04 5.4 °C -4.3 °C 1027.3 hPa Calm   3.2 km/h 49.3% 0 mm 0 W/m2
18:09 5.3 °C -4.3 °C 1027.3 hPa Calm     50% 0 mm 0 W/m2
18:14 5.2 °C -4.2 °C 1027.3 hPa Calm     50.7% 0 mm 0 W/m2
18:19 5.1 °C -4.3 °C 1027.3 hPa Calm     51% 0 mm 0 W/m2
18:24 4.9 °C -4.4 °C 1027.3 hPa Calm     51% 0 mm 0 W/m2
18:29 4.8 °C -4.3 °C 1027.3 hPa Calm     51.6% 0 mm 0 W/m2
18:34 4.7 °C -4.3 °C 1027.3 hPa Calm     52.2% 0 mm 0 W/m2
18:39 4.6 °C -4.4 °C 1027.3 hPa Calm     52.1% 0 mm 0 W/m2
18:44 4.4 °C -4.3 °C 1027.3 hPa Calm     53.1% 0 mm 0 W/m2
18:49 4.3 °C -3.9 °C 1027.7 hPa Calm     55% 0 mm 0 W/m2
18:54 4.2 °C -4 °C 1027.3 hPa Calm     55% 0 mm 0 W/m2
18:59 4.1 °C -4.1 °C 1027.3 hPa Calm     55% 0 mm 0 W/m2
19:04 4 °C -4.2 °C 1027.3 hPa Calm     54.9% 0 mm 0 W/m2
19:09 3.9 °C -4.3 °C 1027.3 hPa Calm     55.1% 0 mm 0 W/m2
19:14 3.8 °C -3.8 °C 1027.3 hPa Calm     57.1% 0 mm 0 W/m2
19:19 3.8 °C -3.8 °C 1027.3 hPa Calm     57.5% 0 mm 0 W/m2
19:24 3.7 °C -3.8 °C 1027.3 hPa Calm     57.8% 0 mm 0 W/m2
19:29 3.7 °C -3.9 °C 1027.3 hPa Calm     57.6% 0 mm 0 W/m2
19:34 3.7 °C -3.5 °C 1027.3 hPa Calm     59.3% 0 mm 0 W/m2
19:39 3.7 °C -3.1 °C 1027.3 hPa Calm     61.4% 0 mm 0 W/m2
19:44 3.7 °C -2.7 °C 1027 hPa Calm     62.9% 0 mm 0 W/m2
19:49 3.6 °C -2.9 °C 1027 hPa Calm     62.5% 0 mm 0 W/m2
19:54 3.6 °C -2.9 °C 1027 hPa Calm     62.7% 0 mm 0 W/m2
19:59 3.6 °C -2.8 °C 1027 hPa Calm     63% 0 mm 0 W/m2
20:00 3.6 °C -2.6 °C 1027 hPa Calm     64% 0 mm 0 W/m2
20:09 3.5 °C -2.6 °C 1027 hPa Calm     64.2% 0 mm 0 W/m2
20:14 3.5 °C -2.4 °C 1027 hPa Calm     65% 0 mm 0 W/m2
20:19 3.5 °C -2.3 °C 1027 hPa Calm     65.6% 0 mm 0 W/m2
20:24 3.6 °C -2.2 °C 1026.6 hPa Calm     66% 0 mm 0 W/m2
20:29 3.6 °C -2.2 °C 1026.6 hPa Calm     66% 0 mm 0 W/m2
20:34 3.6 °C -2 °C 1026.6 hPa Calm     66.7% 0 mm 0 W/m2
20:39 3.6 °C -1.8 °C 1026.6 hPa Calm     67.9% 0 mm 0 W/m2
20:44 3.6 °C -1.7 °C 1026.3 hPa Calm     68% 0 mm 0 W/m2
20:49 3.6 °C -1.7 °C 1026.3 hPa Calm     68% 0 mm 0 W/m2
20:54 3.6 °C -1.7 °C 1026.3 hPa Calm     68.1% 0 mm 0 W/m2
20:59 3.7 °C -1.4 °C 1026.3 hPa Calm     69.1% 0 mm 0 W/m2
21:04 3.7 °C -1.5 °C 1026.3 hPa Calm     69% 0 mm 0 W/m2
21:09 3.7 °C -1.5 °C 1026.3 hPa Calm     69% 0 mm 0 W/m2
21:14 3.7 °C -1.6 °C 1026.3 hPa Calm     68.7% 0 mm 0 W/m2
21:19 3.7 °C -1.8 °C 1026.3 hPa Calm     67.2% 0 mm 0 W/m2
21:24 3.7 °C -1.9 °C 1026 hPa Calm     67% 0 mm 0 W/m2
21:29 3.7 °C -1.9 °C 1026 hPa Calm     67% 0 mm 0 W/m2
21:34 3.7 °C -1.8 °C 1026 hPa Calm     67% 0 mm 0 W/m2
21:39 3.7 °C -1.8 °C 1026 hPa Calm     67.2% 0 mm 0 W/m2
21:44 3.8 °C -1.6 °C 1026 hPa Calm     68% 0 mm 0 W/m2
21:49 3.8 °C -1.6 °C 1025.6 hPa Calm     68% 0 mm 0 W/m2
21:54 3.8 °C -1.6 °C 1025.6 hPa Calm     67.7% 0 mm 0 W/m2
21:59 3.8 °C -1.7 °C 1025.6 hPa Calm     67.6% 0 mm 0 W/m2
22:04 3.8 °C -1.4 °C 1025.6 hPa Calm     68.6% 0 mm 0 W/m2
22:09 3.8 °C -1.4 °C 1025.6 hPa Calm     68.8% 0 mm 0 W/m2
22:14 3.8 °C -1.6 °C 1025.3 hPa Calm     68% 0 mm 0 W/m2
22:19 3.8 °C -1.7 °C 1025.3 hPa Calm     67% 0 mm 0 W/m2
22:24 3.8 °C -1.7 °C 1025.3 hPa Calm     67% 0 mm 0 W/m2
22:29 3.9 °C -1.5 °C 1024.9 hPa Calm     67.8% 0 mm 0 W/m2
22:34 3.9 °C -1.4 °C 1025.3 hPa Calm     68% 0 mm 0 W/m2
22:39 3.9 °C -1.4 °C 1025.3 hPa Calm     67.8% 0 mm 0 W/m2
22:44 3.9 °C -1.4 °C 1024.9 hPa Calm     67.8% 0 mm 0 W/m2
22:49 3.9 °C -1.7 °C 1024.9 hPa Calm     66.8% 0 mm 0 W/m2
22:54 3.9 °C -1.9 °C 1024.6 hPa Calm     65.5% 0 mm 0 W/m2
22:59 3.9 °C -1.9 °C 1024.6 hPa Calm     65.6% 0 mm 0 W/m2
23:00 3.9 °C -1.8 °C 1024.6 hPa Calm     66% 0 mm 0 W/m2
23:09 3.9 °C -1.8 °C 1024.9 hPa Calm     66% 0 mm 0 W/m2
23:14 3.9 °C -1.7 °C 1024.6 hPa Calm     66.8% 0 mm 0 W/m2
23:19 3.9 °C -1.4 °C 1024.6 hPa Calm     67.9% 0 mm 0 W/m2
23:24 3.9 °C -1.6 °C 1024.3 hPa Calm     67.2% 0 mm 0 W/m2
23:29 3.9 °C -1.8 °C 1024.3 hPa Calm     66.4% 0 mm 0 W/m2
23:34 3.9 °C -1.6 °C 1024.3 hPa Calm     67.4% 0 mm 0 W/m2
23:39 3.9 °C -1.2 °C 1024.3 hPa Calm     69% 0 mm 0 W/m2
23:44 3.9 °C -1.2 °C 1024.3 hPa Calm     69.1% 0 mm 0 W/m2
23:49 3.9 °C -1 °C 1023.9 hPa Calm     70% 0 mm 0 W/m2
23:54 4 °C -0.9 °C 1023.9 hPa Calm     70.6% 0 mm 0 W/m2
23:59 4 °C -0.8 °C 1023.9 hPa Calm     71% 0 mm 0 W/m2
Hartford County Weather
Compliments of Weather Underground - 2 mb